Terminal Aerodrome Forecast
Issued by NWS

Home | Current Version | Previous Version | Text Only | Print | Product List | Glossary On
Versions: 1 2 3 4 5 6 7 8 9 10 11 12 13 14 15 16
000
FTUS43 KOAX 101100 AAA
TAFBFF
TAF AMD
KBFF 101153Z 1012/1112 VRB06KT P6SM FEW120
      TEMPO 1012/1014 1SM BR BKN001
     FM102000 26012KT P6SM VCTS BKN050CB BKN120
     FM110200 05006KT P6SM BKN100=

USA.gov is the U.S. government's official web portal to all federal, state and local government web resources and services.